Time;durP1;ratioP1;P1;durP2;ratioP2;P2;SDS_P1;SDS_P2;PMS_P1;PMS_P2;Temp;Humidity;BMP_temperature;BMP_pressure;BME280_temperature;BME280_humidity;BME280_pressure;Samples;Min_cycle;Max_cycle;Signal;HPM_P1;HPM_P2
2022/03/11 00:00:42;;;;;;;16.15;7.88;;;;;;;4.04;100.00;102081.88;4924455;28;20588;-75
2022/03/11 00:03:08;;;;;;;20.52;8.82;;;;;;;4.01;100.00;102076.84;4907944;28;20059;-74
2022/03/11 00:05:33;;;;;;;14.25;8.48;;;;;;;4.00;100.00;102080.50;4922756;28;20050;-75
2022/03/11 00:08:01;;;;;;;14.98;8.20;;;;;;;3.92;100.00;102077.66;4906921;28;20105;-75
2022/03/11 00:10:45;;;;;;;;;;;;;;;3.86;100.00;102078.22;4921768;28;20037;-75
2022/03/11 00:13:11;;;;;;;14.38;8.20;;;;;;;3.85;100.00;102076.53;4907190;28;19933;-75
2022/03/11 00:15:37;;;;;;;14.75;8.32;;;;;;;3.88;100.00;102076.25;4923317;28;22640;-75
2022/03/11 00:18:03;;;;;;;20.08;8.05;;;;;;;3.93;100.00;102079.38;4923882;28;20050;-75
2022/03/11 00:20:31;;;;;;;16.08;8.77;;;;;;;3.91;100.00;102081.31;4922419;28;20026;-75
2022/03/11 00:22:57;;;;;;;17.40;8.95;;;;;;;3.83;100.00;102073.19;4939462;28;20463;-75
2022/03/11 00:25:22;;;;;;;14.20;7.97;;;;;;;3.91;100.00;102075.97;4910104;28;20066;-75
2022/03/11 00:27:48;;;;;;;15.20;8.25;;;;;;;3.83;100.00;102078.50;4922636;28;20525;-75
2022/03/11 00:30:14;;;;;;;17.77;8.60;;;;;;;3.86;100.00;102059.56;4921990;28;20098;-74
2022/03/11 00:32:40;;;;;;;15.85;8.77;;;;;;;3.93;100.00;102068.69;4906750;28;20078;-75
2022/03/11 00:35:09;;;;;;;16.92;8.80;;;;;;;3.97;100.00;102069.25;4911791;28;20088;-74
2022/03/11 00:37:35;;;;;;;15.80;8.52;;;;;;;4.00;100.00;102069.81;4936877;28;20107;-75
2022/03/11 00:40:00;;;;;;;19.05;8.95;;;;;;;3.92;100.00;102072.31;4914513;28;20051;-74
2022/03/11 00:42:27;;;;;;;15.38;9.30;;;;;;;3.86;100.00;102061.38;4916297;28;20035;-74
2022/03/11 00:44:52;;;;;;;15.25;8.88;;;;;;;3.82;100.00;102056.31;4924021;28;20061;-74
2022/03/11 00:47:18;;;;;;;16.48;9.13;;;;;;;3.75;100.00;102063.19;4894702;28;20047;-74
2022/03/11 00:49:43;;;;;;;15.07;9.35;;;;;;;3.79;100.00;102061.94;4938603;28;20030;-74
2022/03/11 00:52:08;;;;;;;16.33;9.35;;;;;;;3.83;100.00;102065.19;4920225;28;21148;-74
2022/03/11 00:54:34;;;;;;;17.30;10.07;;;;;;;3.79;100.00;102063.75;4922467;28;20883;-74
2022/03/11 00:56:59;;;;;;;16.35;9.77;;;;;;;3.75;100.00;102062.34;4908298;28;20668;-74
2022/03/11 00:59:25;;;;;;;20.30;9.73;;;;;;;3.75;100.00;102063.19;4922974;28;21060;-74
2022/03/11 01:01:50;;;;;;;19.50;9.63;;;;;;;3.71;100.00;102052.94;4936218;28;21099;-74
2022/03/11 01:04:16;;;;;;;22.02;10.00;;;;;;;3.72;100.00;102060.81;4911002;28;20093;-74
2022/03/11 01:06:41;;;;;;;17.27;10.25;;;;;;;3.73;100.00;102051.00;4911965;28;20122;-74
2022/03/11 01:09:07;;;;;;;18.13;10.38;;;;;;;3.79;100.00;102053.09;4894354;28;20169;-74
2022/03/11 01:11:33;;;;;;;17.48;10.10;;;;;;;3.77;100.00;102050.56;4892800;28;20043;-74
2022/03/11 01:13:58;;;;;;;20.50;10.73;;;;;;;3.74;100.00;102042.00;4919838;28;20061;-75
2022/03/11 01:16:24;;;;;;;22.73;11.45;;;;;;;3.62;100.00;102040.47;4918900;28;20042;-74
2022/03/11 01:18:50;;;;;;;21.38;12.10;;;;;;;3.56;100.00;102034.69;4906722;28;21634;-74
2022/03/11 01:21:16;;;;;;;22.70;11.52;;;;;;;3.48;100.00;102037.22;4921992;28;20170;-75
2022/03/11 01:23:41;;;;;;;19.55;11.18;;;;;;;3.41;100.00;102028.09;4910687;28;20035;-74
2022/03/11 01:26:07;;;;;;;17.58;10.68;;;;;;;3.40;100.00;102031.72;4888508;28;20059;-75
2022/03/11 01:28:33;;;;;;;19.48;10.82;;;;;;;3.36;100.00;102043.63;4922644;28;20034;-76
2022/03/11 01:30:59;;;;;;;19.70;11.77;;;;;;;3.22;100.00;102030.69;4895963;28;20483;-75
2022/03/11 01:33:24;;;;;;;21.60;12.88;;;;;;;3.20;100.00;102032.66;4921895;28;20031;-75
2022/03/11 01:35:50;;;;;;;22.73;12.50;;;;;;;3.19;100.00;102030.94;4907066;28;20190;-75
2022/03/11 01:38:15;;;;;;;23.20;12.60;;;;;;;3.20;100.00;102027.34;4922850;28;20122;-75
2022/03/11 01:40:41;;;;;;;22.83;11.70;;;;;;;3.15;100.00;102022.41;4919022;28;20137;-75
2022/03/11 01:43:17;;;;;;;22.92;13.25;;;;;;;3.07;100.00;102020.41;4900385;28;20090;-75
2022/03/11 01:45:43;;;;;;;23.08;13.35;;;;;;;3.06;100.00;102012.56;4924759;28;20031;-75
2022/03/11 01:48:10;;;;;;;21.35;13.55;;;;;;;2.92;100.00;102016.44;4905502;28;20156;-75
2022/03/11 01:50:39;;;;;;;24.35;13.50;;;;;;;2.84;100.00;102011.81;4897818;28;20117;-75
2022/03/11 01:53:07;;;;;;;27.77;15.95;;;;;;;2.94;100.00;102014.47;4907326;28;22479;-75
2022/03/11 01:55:32;;;;;;;23.88;14.65;;;;;;;2.94;100.00;101993.19;4919166;28;20498;-75
2022/03/11 01:57:58;;;;;;;29.10;14.93;;;;;;;2.89;100.00;101998.09;4872301;28;20130;-75
2022/03/11 02:00:23;;;;;;;27.98;15.15;;;;;;;2.88;100.00;101996.41;4922239;28;20027;-75
2022/03/11 02:02:49;;;;;;;25.13;14.10;;;;;;;2.83;100.00;102001.28;4917559;28;20518;-75
2022/03/11 02:05:17;;;;;;;25.17;16.23;;;;;;;2.91;100.00;102000.59;4909469;28;20117;-75
2022/03/11 02:07:43;;;;;;;27.15;16.10;;;;;;;2.85;100.00;101991.34;4922085;28;20030;-75
2022/03/11 02:10:09;;;;;;;27.60;15.55;;;;;;;2.85;100.00;101994.84;4907240;28;20114;-75
2022/03/11 02:12:35;;;;;;;29.50;15.93;;;;;;;2.91;100.00;102001.44;4921403;28;20027;-75
2022/03/11 02:15:04;;;;;;;30.58;17.00;;;;;;;2.86;100.00;101990.38;4904423;28;20063;-75
2022/03/11 02:17:30;;;;;;;27.45;16.48;;;;;;;2.98;100.00;101986.59;4918565;28;20050;-75
2022/03/11 02:19:56;;;;;;;26.95;16.73;;;;;;;2.96;100.00;101985.91;4905486;28;20054;-75
2022/03/11 02:22:23;;;;;;;28.33;17.10;;;;;;;2.96;100.00;101983.25;4895611;28;20039;-75
2022/03/11 02:24:50;;;;;;;32.55;17.98;;;;;;;2.99;100.00;101972.34;4926469;28;21175;-75
2022/03/11 02:27:16;;;;;;;29.02;16.90;;;;;;;3.00;100.00;101971.34;4907457;28;20126;-75
2022/03/11 02:29:41;;;;;;;29.77;17.05;;;;;;;2.98;100.00;101972.47;4920549;28;20122;-75
2022/03/11 02:32:07;;;;;;;33.25;18.83;;;;;;;2.91;100.00;101969.50;4906324;28;20078;-75
2022/03/11 02:34:33;;;;;;;33.30;18.35;;;;;;;2.98;100.00;101977.78;4892353;28;20110;-75
2022/03/11 02:36:58;;;;;;;31.95;18.33;;;;;;;2.90;100.00;101964.31;4906368;28;23706;-75
2022/03/11 02:39:23;;;;;;;30.55;18.33;;;;;;;2.91;100.00;101971.31;4917264;28;20101;-75
2022/03/11 02:41:51;;;;;;;32.45;19.13;;;;;;;2.84;100.00;101973.66;4892505;28;20086;-75
2022/03/11 02:44:17;;;;;;;31.00;17.73;;;;;;;2.84;100.00;101963.03;4926030;28;20039;-75
2022/03/11 02:46:42;;;;;;;35.85;18.83;;;;;;;2.81;100.00;101963.31;4921200;28;20042;-75
2022/03/11 02:49:08;;;;;;;38.80;19.33;;;;;;;2.83;100.00;101958.69;4900749;28;20063;-75
2022/03/11 02:51:33;;;;;;;37.53;20.67;;;;;;;2.81;100.00;101955.34;4919616;28;20387;-75
2022/03/11 02:53:59;;;;;;;40.55;19.52;;;;;;;2.76;100.00;101955.72;4896908;28;20146;-75
2022/03/11 02:56:25;;;;;;;31.63;19.42;;;;;;;2.70;100.00;101956.25;4935947;28;20035;-75
2022/03/11 02:58:50;;;;;;;31.80;18.63;;;;;;;2.70;100.00;101944.78;4906439;28;20070;-77
2022/03/11 03:01:16;;;;;;;38.05;20.75;;;;;;;2.67;100.00;101947.69;4913627;28;20165;-75
2022/03/11 03:03:41;;;;;;;40.70;21.48;;;;;;;2.56;100.00;101944.19;4909574;28;20043;-75
2022/03/11 03:06:07;;;;;;;36.70;21.55;;;;;;;2.57;100.00;101948.53;4921139;28;20027;-75
2022/03/11 03:08:34;;;;;;;38.28;21.48;;;;;;;2.53;100.00;101944.44;4919751;28;20046;-75
2022/03/11 03:11:00;;;;;;;35.28;20.92;;;;;;;2.54;100.00;101940.81;4917385;28;20050;-75
2022/03/11 03:13:25;;;;;;;37.17;21.00;;;;;;;2.52;100.00;101942.75;4909532;28;20466;-75
2022/03/11 03:15:51;;;;;;;36.33;19.85;;;;;;;2.60;100.00;101939.44;4903145;28;20065;-75
2022/03/11 03:18:16;;;;;;;37.25;20.65;;;;;;;2.50;100.00;101928.75;4921492;28;20042;-75
2022/03/11 03:20:42;;;;;;;40.75;21.50;;;;;;;2.51;100.00;101924.28;4908507;28;20558;-75
2022/03/11 03:23:08;;;;;;;35.63;20.65;;;;;;;2.53;100.00;101928.50;4919018;28;20141;-75
2022/03/11 03:25:34;;;;;;;35.25;21.30;;;;;;;2.50;100.00;101933.22;4887977;28;20126;-75
2022/03/11 03:27:59;;;;;;;35.45;21.63;;;;;;;2.48;100.00;101929.84;4894223;28;20089;-75
2022/03/11 03:30:25;;;;;;;35.67;20.50;;;;;;;2.42;100.00;101931.22;4918964;28;21042;-74
2022/03/11 03:32:50;;;;;;;39.67;20.67;;;;;;;2.33;100.00;101932.03;4887039;28;20138;-74
2022/03/11 03:35:16;;;;;;;36.47;20.55;;;;;;;2.31;100.00;101928.66;4921619;28;20063;-74
2022/03/11 03:37:41;;;;;;;35.03;21.35;;;;;;;2.31;100.00;101933.97;4905018;28;20055;-74
2022/03/11 03:40:08;;;;;;;41.42;21.52;;;;;;;2.39;100.00;101931.50;4918515;28;21186;-75
2022/03/11 03:42:34;;;;;;;38.55;21.45;;;;;;;2.31;100.00;101934.81;4893055;28;20100;-75
2022/03/11 03:44:59;;;;;;;38.67;22.70;;;;;;;2.31;100.00;101928.66;4921971;28;20635;-75
2022/03/11 03:47:25;;;;;;;37.90;21.85;;;;;;;2.21;100.00;101925.09;4918979;28;20022;-75
2022/03/11 03:49:50;;;;;;;36.55;21.25;;;;;;;2.20;100.00;101926.06;4890154;28;20059;-75
2022/03/11 03:52:15;;;;;;;41.72;22.73;;;;;;;2.18;100.00;101922.69;4913961;28;20031;-75
2022/03/11 03:54:41;;;;;;;36.53;20.58;;;;;;;2.19;100.00;101919.09;4906751;28;20252;-75
2022/03/11 03:57:07;;;;;;;40.30;23.05;;;;;;;2.10;100.00;101915.38;4921606;28;20609;-74
2022/03/11 03:59:33;;;;;;;40.55;22.48;;;;;;;2.10;100.00;101910.91;4904257;28;20098;-74
2022/03/11 04:01:59;;;;;;;36.92;22.30;;;;;;;2.13;100.00;101907.16;4919920;28;22747;-75
2022/03/11 04:04:24;;;;;;;38.95;21.88;;;;;;;2.19;100.00;101919.09;4903848;28;20058;-72
2022/03/11 04:06:49;;;;;;;37.83;23.15;;;;;;;2.12;100.00;101913.44;4902950;28;20070;-74
2022/03/11 04:09:15;;;;;;;37.78;21.88;;;;;;;2.12;100.00;101914.28;4920396;28;20031;-74
2022/03/11 04:11:40;;;;;;;38.47;21.73;;;;;;;2.10;100.00;101916.22;4899123;28;20169;-72
2022/03/11 04:14:06;;;;;;;38.42;22.63;;;;;;;2.02;100.00;101897.44;4927945;28;20042;-73
2022/03/11 04:16:32;;;;;;;40.42;22.48;;;;;;;2.00;100.00;101912.69;4913065;28;20051;-73
2022/03/11 04:18:57;;;;;;;42.33;22.45;;;;;;;1.98;100.00;101901.34;4928446;28;20054;-73
2022/03/11 04:21:23;;;;;;;40.03;23.35;;;;;;;1.95;100.00;101904.25;4911237;28;20097;-73
2022/03/11 04:23:50;;;;;;;37.72;21.85;;;;;;;1.96;100.00;101897.94;4914099;28;20094;-73
2022/03/11 04:26:16;;;;;;;37.28;22.15;;;;;;;1.92;100.00;101902.69;4930309;28;20034;-73
2022/03/11 04:28:41;;;;;;;35.60;21.65;;;;;;;1.92;100.00;101896.53;4924616;28;20122;-73
2022/03/11 04:31:08;;;;;;;40.92;21.88;;;;;;;1.85;100.00;101903.34;4926566;28;20038;-73
2022/03/11 04:33:34;;;;;;;37.05;22.40;;;;;;;1.80;100.00;101892.28;4911577;28;20099;-73
2022/03/11 04:36:00;;;;;;;36.03;21.90;;;;;;;1.76;100.00;101896.16;4922253;28;20061;-73
2022/03/11 04:38:26;;;;;;;40.33;23.45;;;;;;;1.71;100.00;101890.38;4923835;28;20079;-73
2022/03/11 04:40:51;;;;;;;42.40;22.90;;;;;;;1.61;100.00;101896.47;4937538;28;20026;-73
2022/03/11 04:43:17;;;;;;;41.58;23.42;;;;;;;1.58;100.00;101894.09;4910730;28;20050;-73
2022/03/11 04:45:43;;;;;;;45.55;23.90;;;;;;;1.56;100.00;101885.41;4924473;28;20047;-73
2022/03/11 04:48:08;;;;;;;40.17;23.83;;;;;;;1.59;100.00;101885.16;4903451;28;20074;-73
2022/03/11 04:50:34;;;;;;;40.58;23.27;;;;;;;1.59;100.00;101890.44;4912356;28;20055;-73
2022/03/11 04:52:59;;;;;;;40.45;22.45;;;;;;;1.58;100.00;101882.59;4923785;28;20026;-73
2022/03/11 04:55:25;;;;;;;37.35;22.65;;;;;;;1.55;100.00;101886.38;4922205;28;20055;-73
2022/03/11 04:57:50;;;;;;;40.45;23.23;;;;;;;1.62;100.00;101889.38;4894811;28;22176;-73
2022/03/11 05:00:16;;;;;;;38.10;23.60;;;;;;;1.56;100.00;101887.22;4891784;28;20051;-73
2022/03/11 05:02:44;;;;;;;40.25;24.50;;;;;;;1.52;100.00;101883.97;4924364;28;20054;-73
2022/03/11 05:05:11;;;;;;;37.90;21.90;;;;;;;1.51;100.00;101887.59;4890526;28;20047;-73
2022/03/11 05:07:37;;;;;;;47.10;23.42;;;;;;;1.46;100.00;101881.81;4921475;28;20478;-73
2022/03/11 05:10:04;;;;;;;41.72;23.98;;;;;;;1.41;100.00;101887.53;4924278;28;20114;-73
2022/03/11 05:12:31;;;;;;;41.42;23.23;;;;;;;1.46;100.00;101889.78;4906105;28;20050;-73
2022/03/11 05:14:56;;;;;;;39.67;23.77;;;;;;;1.31;100.00;101889.25;4906778;28;20043;-73
2022/03/11 05:17:22;;;;;;;34.53;21.75;;;;;;;1.21;100.00;101890.16;4876138;28;20130;-73
2022/03/11 05:19:47;;;;;;;38.05;23.02;;;;;;;1.18;100.00;101889.41;4923703;28;20162;-73
2022/03/11 05:22:13;;;;;;;42.65;23.40;;;;;;;1.19;100.00;101893.78;4906241;28;20418;-73
2022/03/11 05:24:39;;;;;;;45.00;22.90;;;;;;;1.19;100.00;101888.47;4905119;28;20032;-73
2022/03/11 05:27:05;;;;;;;39.65;23.83;;;;;;;1.19;100.00;101895.56;4905086;28;20495;-73
2022/03/11 05:29:32;;;;;;;37.20;23.25;;;;;;;1.22;100.00;101886.50;4921558;28;20043;-73
2022/03/11 05:31:58;;;;;;;39.90;24.10;;;;;;;1.18;100.00;101886.75;4926322;28;20147;-73
2022/03/11 05:34:23;;;;;;;38.80;22.63;;;;;;;1.23;100.00;101883.75;4909990;28;20419;-73
2022/03/11 05:36:49;;;;;;;40.35;23.63;;;;;;;1.10;100.00;101878.59;4923590;28;20052;-72
2022/03/11 05:39:14;;;;;;;41.90;24.02;;;;;;;1.13;100.00;101883.66;4876614;28;20731;-71
2022/03/11 05:41:40;;;;;;;39.10;23.45;;;;;;;1.24;100.00;101880.13;4922824;28;20160;-72
2022/03/11 05:44:06;;;;;;;39.22;23.13;;;;;;;1.32;100.00;101872.34;4902734;28;20063;-72
2022/03/11 05:46:32;;;;;;;43.65;23.42;;;;;;;1.26;100.00;101872.84;4922837;28;20035;-71
2022/03/11 05:48:57;;;;;;;46.63;25.02;;;;;;;1.25;100.00;101876.47;4917684;28;20038;-72
2022/03/11 05:51:23;;;;;;;38.03;22.75;;;;;;;1.18;100.00;101875.31;4908749;28;20101;-72
2022/03/11 05:53:48;;;;;;;36.42;21.17;;;;;;;1.25;100.00;101865.03;4921751;28;20035;-72
2022/03/11 05:56:14;;;;;;;43.20;22.50;;;;;;;1.25;100.00;101870.34;4903859;28;20065;-72
2022/03/11 05:58:39;;;;;;;40.80;20.95;;;;;;;1.27;100.00;101863.94;4918445;28;20512;-72
2022/03/11 06:01:05;;;;;;;39.80;21.58;;;;;;;1.22;100.00;101860.81;4889833;28;20514;-72
2022/03/11 06:03:30;;;;;;;38.35;22.42;;;;;;;1.19;100.00;101861.94;4922389;28;20124;-72
2022/03/11 06:05:56;;;;;;;43.28;21.70;;;;;;;1.22;100.00;101860.81;4890984;28;20063;-72
2022/03/11 06:08:21;;;;;;;39.13;23.10;;;;;;;1.26;100.00;101856.09;4921774;28;20066;-72
2022/03/11 06:10:47;;;;;;;37.13;22.45;;;;;;;1.33;100.00;101858.09;4920050;28;20035;-72
2022/03/11 06:13:17;;;;;;;40.40;21.83;;;;;;;1.55;100.00;101862.47;4892598;28;20051;-71
2022/03/11 06:15:42;;;;;;;35.70;21.35;;;;;;;1.76;100.00;101856.31;4925368;28;20423;-71
2022/03/11 06:18:08;;;;;;;36.88;20.83;;;;;;;2.05;100.00;101848.50;4911966;28;20141;-72
2022/03/11 06:20:35;;;;;;;42.05;20.58;;;;;;;2.14;100.00;101863.63;4909578;28;20585;-71
2022/03/11 06:23:00;;;;;;;35.30;20.63;;;;;;;2.24;100.00;101861.03;4894933;28;20086;-71
2022/03/11 06:25:26;;;;;;;36.97;21.05;;;;;;;2.30;100.00;101860.50;4920456;28;20038;-71
2022/03/11 06:27:51;;;;;;;38.47;20.65;;;;;;;2.37;100.00;101864.31;4905511;28;20030;-71
2022/03/11 06:30:17;;;;;;;35.63;22.35;;;;;;;2.53;100.00;101862.00;4921539;28;20468;-71
2022/03/11 06:32:44;;;;;;;33.35;20.17;;;;;;;3.08;100.00;101851.72;4922573;28;20127;-72
2022/03/11 06:35:13;;;;;;;36.00;21.90;;;;;;;3.74;100.00;101858.97;4885713;28;20175;-72
2022/03/11 06:37:40;;;;;;;34.08;20.67;;;;;;;4.07;100.00;101849.63;4876221;29;20047;-72
2022/03/11 06:40:08;;;;;;;33.05;20.40;;;;;;;4.47;100.00;101859.13;4886646;29;21037;-72
2022/03/11 06:42:41;;;;;;;37.28;20.70;;;;;;;4.77;100.00;101854.47;4902636;28;20038;-72
2022/03/11 06:45:08;;;;;;;35.78;22.13;;;;;;;4.91;100.00;101861.97;4869611;29;20067;-72
2022/03/11 06:47:34;;;;;;;35.88;20.30;;;;;;;4.90;100.00;101860.28;4889706;29;20034;-71
2022/03/11 06:49:59;;;;;;;33.70;19.98;;;;;;;4.95;100.00;101858.03;4888364;29;20490;-72
2022/03/11 06:52:25;;;;;;;33.83;20.20;;;;;;;5.19;96.52;101860.06;4890779;29;20416;-72
2022/03/11 06:54:50;;;;;;;36.22;20.25;;;;;;;5.31;93.96;101858.03;4903149;29;20137;-72
2022/03/11 06:57:17;;;;;;;31.67;19.90;;;;;;;5.50;88.71;101857.00;4873168;29;20057;-72
2022/03/11 06:59:46;;;;;;;33.55;20.13;;;;;;;5.83;80.99;101855.44;4901680;29;20027;-72
2022/03/11 07:02:12;;;;;;;28.70;18.98;;;;;;;5.61;81.68;101847.91;4887115;29;20198;-72
2022/03/11 07:04:38;;;;;;;32.95;19.25;;;;;;;6.02;78.35;101845.53;4904834;29;20047;-73
2022/03/11 07:07:04;;;;;;;33.60;20.42;;;;;;;6.48;71.63;101852.28;4887718;29;20174;-73
2022/03/11 07:09:29;;;;;;;34.25;20.63;;;;;;;6.35;69.37;101847.41;4905701;29;20046;-72
2022/03/11 07:12:00;;;;;;;32.45;20.67;;;;;;;6.61;68.23;101847.31;4904703;29;20032;-73
2022/03/11 07:14:27;;;;;;;31.90;19.45;;;;;;;6.37;68.27;101831.16;4893293;29;20983;-73
2022/03/11 07:16:53;;;;;;;37.00;20.88;;;;;;;6.75;66.97;101845.84;4888883;29;20047;-72
2022/03/11 07:19:27;;;;;;;31.63;19.02;;;;;;;7.09;65.11;101831.50;4872852;29;20061;-73
2022/03/11 07:21:56;;;;;;;31.30;20.05;;;;;;;7.04;63.18;101833.84;4903456;29;20392;-72
2022/03/11 07:24:22;;;;;;;33.30;20.73;;;;;;;6.82;63.73;101833.50;4870073;29;20154;-72
2022/03/11 07:26:47;;;;;;;32.72;19.92;;;;;;;6.96;63.98;101839.22;4870822;29;20044;-72
2022/03/11 07:29:13;;;;;;;29.88;19.20;;;;;;;7.20;62.70;101836.56;4874575;29;20506;-72
2022/03/11 07:31:39;;;;;;;31.73;20.83;;;;;;;7.36;61.44;101841.91;4901956;29;20044;-73
2022/03/11 07:34:04;;;;;;;25.85;18.38;;;;;;;7.50;61.50;101836.91;4868805;29;20131;-72
2022/03/11 07:36:30;;;;;;;31.50;18.60;;;;;;;7.10;60.75;101814.44;4907849;28;20117;-73
2022/03/11 07:38:57;;;;;;;29.52;19.00;;;;;;;7.27;60.34;101826.03;4916576;28;20043;-73
2022/03/11 07:41:22;;;;;;;29.35;19.35;;;;;;;7.64;60.54;101825.47;4905075;28;20133;-73
2022/03/11 07:43:48;;;;;;;29.05;19.50;;;;;;;7.50;59.26;101837.72;4919767;28;20070;-72
2022/03/11 07:46:14;;;;;;;30.95;18.35;;;;;;;7.54;59.60;101828.34;4904755;28;20059;-73
2022/03/11 07:48:44;;;;;;;32.00;20.10;;;;;;;7.72;58.53;101830.00;4905896;28;20105;-73
2022/03/11 07:51:10;;;;;;;35.70;19.88;;;;;;;7.55;59.46;101823.84;4887394;28;20432;-74
2022/03/11 07:53:36;;;;;;;32.38;19.80;;;;;;;7.63;59.31;101826.50;4921674;28;20027;-73
2022/03/11 07:56:04;;;;;;;28.92;19.92;;;;;;;7.72;58.60;101825.50;4923741;28;23903;-73
2022/03/11 07:58:30;;;;;;;30.42;19.33;;;;;;;7.78;58.19;101830.16;4910304;28;20415;-73
2022/03/11 08:00:55;;;;;;;28.27;19.17;;;;;;;7.69;58.05;101820.47;4914935;28;20031;-73
2022/03/11 08:03:21;;;;;;;32.92;19.70;;;;;;;7.83;57.62;101827.81;4898321;28;20086;-74
2022/03/11 08:05:47;;;;;;;28.90;19.40;;;;;;;8.04;56.92;101823.75;4923967;28;20039;-72
2022/03/11 08:08:13;;;;;;;30.08;19.60;;;;;;;7.77;57.40;101823.13;4907103;28;20054;-73
2022/03/11 08:10:39;;;;;;;29.98;19.75;;;;;;;7.77;57.55;101827.66;4894445;28;21008;-73
2022/03/11 08:13:07;;;;;;;29.98;19.25;;;;;;;8.03;56.92;101828.25;4908601;28;20031;-73
2022/03/11 08:15:36;;;;;;;29.27;19.65;;;;;;;8.16;55.81;101816.16;4924474;28;20123;-73
2022/03/11 08:18:03;;;;;;;35.08;21.50;;;;;;;8.21;55.93;101819.97;4924933;28;20038;-74
2022/03/11 08:20:29;;;;;;;31.90;18.85;;;;;;;8.46;54.74;101828.81;4908219;28;20185;-74
2022/03/11 08:22:54;;;;;;;30.63;18.80;;;;;;;8.49;53.68;101822.25;4922088;28;20057;-74
2022/03/11 08:25:26;;;;;;;30.65;19.42;;;;;;;8.55;55.03;101816.19;4906237;28;20492;-74
2022/03/11 08:27:52;;;;;;;34.35;19.30;;;;;;;8.59;54.27;101822.88;4926935;28;20056;-73
2022/03/11 08:30:18;;;;;;;30.55;20.13;;;;;;;8.39;54.33;101816.25;4908125;28;20050;-73
2022/03/11 08:32:43;;;;;;;32.85;19.10;;;;;;;8.63;54.08;101808.06;4925035;28;20486;-73
2022/03/11 08:35:09;;;;;;;29.80;18.23;;;;;;;8.72;53.93;101811.56;4911065;28;20114;-74
2022/03/11 08:37:35;;;;;;;29.40;18.75;;;;;;;9.11;52.06;101800.72;4932677;28;20469;-75
2022/03/11 08:40:00;;;;;;;27.65;18.65;;;;;;;9.36;51.64;101805.88;4930989;28;23700;-75
2022/03/11 08:42:26;;;;;;;34.33;20.13;;;;;;;9.23;51.19;101793.91;4912585;28;20090;-76
2022/03/11 08:44:51;;;;;;;35.13;20.05;;;;;;;8.73;50.87;101789.88;4914115;28;20185;-75
2022/03/11 08:47:17;;;;;;;30.15;18.73;;;;;;;8.36;52.64;101796.78;4903475;28;20059;-73
2022/03/11 08:49:42;;;;;;;31.20;20.30;;;;;;;8.41;53.51;101792.75;4927718;28;20039;-74
2022/03/11 08:52:08;;;;;;;30.63;19.45;;;;;;;8.75;52.44;101801.28;4903856;28;22649;-74
2022/03/11 08:54:34;;;;;;;30.10;20.58;;;;;;;8.92;51.82;101806.56;4926948;28;22609;-75
2022/03/11 08:56:59;;;;;;;28.85;19.52;;;;;;;8.67;52.47;101792.44;4924922;28;20031;-74
2022/03/11 08:59:26;;;;;;;30.25;20.30;;;;;;;8.93;51.36;101786.75;4909877;28;20058;-75
2022/03/11 09:01:51;;;;;;;29.92;18.60;;;;;;;8.72;50.71;101785.53;4924475;28;20031;-75
2022/03/11 09:04:17;;;;;;;31.02;20.48;;;;;;;8.43;52.29;101780.00;4899254;28;20141;-75
2022/03/11 09:06:42;;;;;;;35.33;19.38;;;;;;;8.25;52.80;101773.00;4923022;28;20039;-75
2022/03/11 09:09:08;;;;;;;30.40;19.67;;;;;;;8.45;51.60;101777.97;4907497;28;20055;-75
2022/03/11 09:11:34;;;;;;;28.85;19.33;;;;;;;8.58;52.06;101764.81;4928464;28;20039;-75
2022/03/11 09:14:00;;;;;;;27.63;18.13;;;;;;;8.79;51.62;101764.16;4908443;28;20077;-75
2022/03/11 09:16:26;;;;;;;32.13;20.80;;;;;;;8.55;51.91;101768.66;4922754;28;20062;-74
2022/03/11 09:18:52;;;;;;;31.48;18.90;;;;;;;8.65;51.29;101756.88;4921906;28;20174;-75
2022/03/11 09:21:17;;;;;;;31.33;19.23;;;;;;;8.66;51.46;101745.94;4907209;28;21040;-75
2022/03/11 09:23:43;;;;;;;31.35;19.58;;;;;;;8.66;52.07;101748.63;4903475;28;20039;-75
2022/03/11 09:26:08;;;;;;;31.58;19.08;;;;;;;8.72;51.32;101749.78;4903900;28;20155;-75
2022/03/11 09:28:34;;;;;;;26.20;18.77;;;;;;;8.70;50.63;101765.22;4922128;28;20040;-75
2022/03/11 09:31:01;;;;;;;28.15;18.23;;;;;;;8.63;50.81;101743.59;4905071;28;20432;-75
2022/03/11 09:33:27;;;;;;;26.77;18.40;;;;;;;8.75;50.92;101752.13;4925450;28;20038;-75
2022/03/11 09:35:52;;;;;;;26.70;18.27;;;;;;;8.75;50.24;101746.75;4890881;28;20089;-75
2022/03/11 09:38:18;;;;;;;27.90;17.60;;;;;;;8.89;50.56;101743.28;4889592;28;20133;-75
2022/03/11 09:40:44;;;;;;;34.75;20.92;;;;;;;8.80;50.40;101734.41;4923276;28;20039;-75
2022/03/11 09:43:11;;;;;;;28.98;18.27;;;;;;;8.76;50.54;101735.81;4907101;28;20063;-75
2022/03/11 09:45:37;;;;;;;28.58;19.08;;;;;;;8.82;50.80;101727.03;4909148;28;20074;-74
2022/03/11 09:48:03;;;;;;;30.70;19.10;;;;;;;9.23;50.01;101726.69;4905885;28;20617;-73
2022/03/11 09:50:29;;;;;;;28.63;18.83;;;;;;;8.97;49.12;101708.25;4910931;28;20187;-74
2022/03/11 09:52:55;;;;;;;36.05;19.60;;;;;;;9.20;49.81;101719.00;4881585;28;20047;-74
2022/03/11 09:55:20;;;;;;;27.30;18.75;;;;;;;9.17;49.77;101707.78;4889612;28;20046;-74
2022/03/11 09:57:46;;;;;;;30.63;19.38;;;;;;;9.31;49.64;101709.66;4920212;28;20685;-73
2022/03/11 10:00:12;;;;;;;30.52;18.05;;;;;;;9.46;49.13;101707.78;4912618;28;20096;-73
2022/03/11 10:02:37;;;;;;;25.85;18.25;;;;;;;9.48;48.52;101691.50;4893053;28;20495;-73
2022/03/11 10:05:03;;;;;;;32.38;19.48;;;;;;;9.57;48.40;101693.06;4891748;28;20051;-74
2022/03/11 10:07:30;;;;;;;30.15;18.88;;;;;;;9.74;47.51;101691.84;4924212;28;20675;-74
2022/03/11 10:09:56;;;;;;;36.83;19.38;;;;;;;9.52;47.48;101680.16;4906545;28;20087;-74
2022/03/11 10:12:24;;;;;;;24.92;17.55;;;;;;;9.45;47.19;101676.56;4904251;28;20035;-73
2022/03/11 10:15:02;;;;;;;30.75;19.17;;;;;;;9.45;47.16;101686.47;4894526;28;21215;-74
2022/03/11 10:17:38;;;;;;;29.13;18.55;;;;;;;9.50;46.45;101684.06;4924541;28;20035;-74
2022/03/11 10:20:03;;;;;;;29.23;17.17;;;;;;;9.66;46.33;101680.34;4884717;28;20027;-74
2022/03/11 10:22:30;;;;;;;30.73;17.92;;;;;;;9.77;46.09;101688.78;4921697;28;20308;-74
2022/03/11 10:24:56;;;;;;;27.90;17.20;;;;;;;10.30;45.28;101693.19;4889227;28;20035;-74
2022/03/11 10:27:25;;;;;;;25.88;17.27;;;;;;;9.92;44.88;101691.44;4905132;28;20074;-74
2022/03/11 10:29:52;;;;;;;23.90;17.08;;;;;;;9.82;45.06;101687.38;4905707;28;21121;-74
2022/03/11 10:32:23;;;;;;;26.40;18.42;;;;;;;9.87;45.78;101683.13;4886240;28;20047;-74
2022/03/11 10:34:50;;;;;;;28.80;17.13;;;;;;;10.21;45.30;101701.34;4903732;28;20114;-74
2022/03/11 10:37:16;;;;;;;34.05;18.40;;;;;;;10.29;44.79;101667.28;4889151;28;20054;-75
2022/03/11 10:39:46;;;;;;;25.33;18.52;;;;;;;10.54;44.36;101673.13;4907879;28;20043;-75
2022/03/11 10:42:12;;;;;;;26.77;17.45;;;;;;;10.46;44.40;101684.88;4894773;28;20830;-75
2022/03/11 10:44:38;;;;;;;26.27;17.85;;;;;;;10.71;43.55;101685.31;4922105;28;20053;-75
2022/03/11 10:47:24;;;;;;;24.48;18.23;;;;;;;10.28;43.44;101666.44;4921490;28;20042;-75
2022/03/11 10:49:54;;;;;;;26.77;18.40;;;;;;;10.39;44.80;101673.16;4906219;28;20059;-75
2022/03/11 10:52:49;;;;;;;28.73;18.05;;;;;;;10.30;43.72;101667.09;4921601;28;20031;-73
2022/03/11 10:55:29;;;;;;;31.80;18.08;;;;;;;10.46;43.38;101671.41;4903220;28;20058;-74
2022/03/11 10:57:56;;;;;;;23.63;17.10;;;;;;;10.78;43.86;101671.91;4921247;28;20065;-73
2022/03/11 11:00:26;;;;;;;24.48;17.45;;;;;;;10.68;42.49;101664.97;4896653;28;20051;-74
2022/03/11 11:02:56;;;;;;;23.90;17.85;;;;;;;10.87;43.13;101666.16;4924080;28;20086;-73
2022/03/11 11:05:22;;;;;;;30.33;18.48;;;;;;;11.31;41.37;101632.69;4895079;28;20158;-73
2022/03/11 11:07:48;;;;;;;27.08;18.15;;;;;;;11.36;41.36;101661.75;4903690;28;20037;-73